Terminal Aerodrome Forecast
Issued by NWS

Home | Current Version | Previous Version | Text Only | Print | Product List | Glossary On
Versions: 1 2 3 4 5 6 7 8 9 10 11 12 13 14 15 16 17 18 19
000
FTUS42 KTAE 242300
TAFVLD
TAF
KVLD 242320Z 2500/2524 VRB02KT 4SM TSRA BR BKN012CB OVC050
     FM251000 01005KT 3SM RA BR OVC003
     FM251500 02004KT 6SM RA BR OVC007=

USA.gov is the U.S. government's official web portal to all federal, state and local government web resources and services.